Time;durP1;ratioP1;P1;durP2;ratioP2;P2;SDS_P1;SDS_P2;PMS_P1;PMS_P2;Temp;Humidity;BMP_temperature;BMP_pressure;BME280_temperature;BME280_humidity;BME280_pressure;Samples;Min_cycle;Max_cycle;Signal;HPM_P1;HPM_P2
2022/06/24 00:00:56;;;;;;;;;;;20.30;93.70;;;;;;5073700;28;20308;-77
2022/06/24 00:03:21;;;;;;;;;;;20.20;92.80;;;;;;5084153;28;19922;-77
2022/06/24 00:05:47;;;;;;;;;;;20.10;93.40;;;;;;5092956;28;19911;-77
2022/06/24 00:08:12;;;;;;;;;;;20.10;93.50;;;;;;5092298;28;19904;-77
2022/06/24 00:10:38;;;;;;;;;;;20.00;94.20;;;;;;5092822;28;19904;-77
2022/06/24 00:13:05;;;;;;;;;;;19.90;94.80;;;;;;5085029;28;20386;-76
2022/06/24 00:15:32;;;;;;;;;;;19.90;94.20;;;;;;5091490;28;19912;-76
2022/06/24 00:18:10;;;;;;;;;;;19.80;95.40;;;;;;5078752;28;19990;-77
2022/06/24 00:20:40;;;;;;;;;;;19.80;96.60;;;;;;5088120;28;19907;-77
2022/06/24 00:23:08;;;;;;;;;;;19.70;96.50;;;;;;5090356;28;19908;-77
2022/06/24 00:25:35;;;;;;;;;;;19.70;96.70;;;;;;5092616;28;19994;-77
2022/06/24 00:28:05;;;;;;;;;;;19.70;98.70;;;;;;5091467;28;19954;-76
2022/06/24 00:30:37;;;;;;;;;;;19.60;97.70;;;;;;5085338;28;19908;-76
2022/06/24 00:33:10;;;;;;;;;;;19.50;98.40;;;;;;5085811;28;20313;-77
2022/06/24 00:35:37;;;;;;;;;;;19.50;97.70;;;;;;5080977;28;20511;-77
2022/06/24 00:38:19;;;;;;;;;;;19.50;97.40;;;;;;5059466;28;20331;-77
2022/06/24 00:40:47;;;;;;;;;;;19.40;97.50;;;;;;5071865;28;19919;-78
2022/06/24 00:43:26;;;;;;;;;;;19.40;96.80;;;;;;5091870;28;19904;-78
2022/06/24 00:45:55;;;;;;;;;;;19.40;97.70;;;;;;5087958;28;19904;-77
2022/06/24 00:48:21;;;;;;;;;;;19.40;97.10;;;;;;5086995;28;20289;-78
2022/06/24 00:50:47;;;;;;;;;;;19.40;98.20;;;;;;5091684;28;20264;-78
2022/06/24 00:53:13;;;;;;;;;;;19.40;98.80;;;;;;5088939;28;19911;-78
2022/06/24 00:55:41;;;;;;;;;;;19.30;97.70;;;;;;5074357;28;19959;-78
2022/06/24 00:58:11;;;;;;;;;;;19.30;97.50;;;;;;5062508;28;19909;-78
2022/06/24 01:00:36;;;;;;;;;;;19.30;98.40;;;;;;5074446;28;20465;-78
2022/06/24 01:03:05;;;;;;;;;;;19.30;98.40;;;;;;5060134;28;19999;-78
2022/06/24 01:05:32;;;;;;;;;;;19.30;99.00;;;;;;5067767;28;19915;-78
2022/06/24 01:07:58;;;;;;;;;;;19.20;99.60;;;;;;5092985;28;19907;-78
2022/06/24 01:10:24;;;;;;;;;;;19.20;99.20;;;;;;5070589;28;19958;-78
2022/06/24 01:12:50;;;;;;;;;;;19.20;99.30;;;;;;5060209;28;19913;-78
2022/06/24 01:15:15;;;;;;;;;;;19.10;99.50;;;;;;5068681;28;19939;-78
2022/06/24 01:17:41;;;;;;;;;;;19.10;99.00;;;;;;5070758;28;19926;-77
2022/06/24 01:20:09;;;;;;;;;;;19.10;99.90;;;;;;5068073;28;19908;-77
2022/06/24 01:22:34;;;;;;;;;;;19.00;99.90;;;;;;5066937;28;19908;-79
2022/06/24 01:24:59;;;;;;;;;;;19.00;99.90;;;;;;5070871;28;19920;-76
2022/06/24 01:27:25;;;;;;;;;;;19.00;99.90;;;;;;5066508;28;19955;-76
2022/06/24 01:29:50;;;;;;;;;;;18.90;99.90;;;;;;5060176;28;19912;-78
2022/06/24 01:32:16;;;;;;;;;;;18.80;99.90;;;;;;5068307;28;20391;-78
2022/06/24 01:34:41;;;;;;;;;;;18.70;99.90;;;;;;5066030;28;19990;-78
2022/06/24 01:37:07;;;;;;;;;;;18.70;99.90;;;;;;5070696;28;19909;-77
2022/06/24 01:39:32;;;;;;;;;;;18.60;99.90;;;;;;5058088;28;19963;-78
2022/06/24 01:41:58;;;;;;;;;;;18.60;99.90;;;;;;5064755;28;19909;-77
2022/06/24 01:44:23;;;;;;;;;;;18.50;99.90;;;;;;5065154;28;19912;-76
2022/06/24 01:46:49;;;;;;;;;;;18.50;99.90;;;;;;5063908;28;19916;-76
2022/06/24 01:49:15;;;;;;;;;;;18.40;99.90;;;;;;5058394;28;20006;-76
2022/06/24 01:51:42;;;;;;;;;;;18.40;99.90;;;;;;5068651;28;19999;-76
2022/06/24 01:54:07;;;;;;;;;;;18.30;99.90;;;;;;5070604;28;19917;-77
2022/06/24 01:56:33;;;;;;;;;;;18.30;99.90;;;;;;5058997;28;19909;-77
2022/06/24 01:58:58;;;;;;;;;;;18.20;99.90;;;;;;5067865;28;19912;-77
2022/06/24 02:01:24;;;;;;;;;;;18.20;99.90;;;;;;5060871;28;19908;-76
2022/06/24 02:03:49;;;;;;;;;;;18.10;99.90;;;;;;5065395;28;20043;-77
2022/06/24 02:06:17;;;;;;;;;;;18.10;99.90;;;;;;5062621;28;19974;-77
2022/06/24 02:08:43;;;;;;;;;;;18.10;99.90;;;;;;5063210;28;19909;-76
2022/06/24 02:13:54;;;;;;;;;;;18.00;99.90;;;;;;5056085;28;19920;-77
2022/06/24 02:16:20;;;;;;;;;;;18.00;99.90;;;;;;5053913;28;19912;-76
2022/06/24 02:18:46;;;;;;;;;;;18.00;99.90;;;;;;5064176;28;20042;-76
2022/06/24 02:21:12;;;;;;;;;;;18.00;99.90;;;;;;5069365;28;19994;-76
2022/06/24 02:23:38;;;;;;;;;;;17.90;99.90;;;;;;5068343;28;20420;-76
2022/06/24 02:26:04;;;;;;;;;;;17.90;99.90;;;;;;5069709;28;19915;-77
2022/06/24 02:28:29;;;;;;;;;;;17.80;99.90;;;;;;5064654;28;19942;-77
2022/06/24 02:30:56;;;;;;;;;;;17.80;99.90;;;;;;5068332;28;19908;-76
2022/06/24 02:33:22;;;;;;;;;;;17.80;99.90;;;;;;5069626;28;19912;-77
2022/06/24 02:35:47;;;;;;;;;;;17.70;99.90;;;;;;5065195;28;19908;-77
2022/06/24 02:38:13;;;;;;;;;;;17.70;99.90;;;;;;5067877;28;19911;-76
2022/06/24 02:40:47;;;;;;;;;;;17.70;99.90;;;;;;5056297;28;19912;-76
2022/06/24 02:43:13;;;;;;;;;;;17.70;99.90;;;;;;5056964;28;19904;-76
2022/06/24 02:45:38;;;;;;;;;;;17.70;99.90;;;;;;5068600;28;19915;-77
2022/06/24 02:48:04;;;;;;;;;;;17.60;99.90;;;;;;5056248;28;19908;-77
2022/06/24 02:50:30;;;;;;;;;;;17.60;99.90;;;;;;5056429;28;19927;-76
2022/06/24 02:52:55;;;;;;;;;;;17.60;99.90;;;;;;5073622;28;20338;-77
2022/06/24 02:55:21;;;;;;;;;;;17.60;99.90;;;;;;5100961;28;19916;-76
2022/06/24 02:57:46;;;;;;;;;;;17.60;99.90;;;;;;5089292;28;19962;-76
2022/06/24 03:00:12;;;;;;;;;;;17.60;99.90;;;;;;5086391;28;19904;-76
2022/06/24 03:02:37;;;;;;;;;;;17.60;99.90;;;;;;5086880;28;19908;-77
2022/06/24 03:05:03;;;;;;;;;;;17.60;99.90;;;;;;5084675;28;20366;-77
2022/06/24 03:07:28;;;;;;;;;;;17.60;99.90;;;;;;5088817;28;20436;-77
2022/06/24 03:09:53;;;;;;;;;;;17.60;99.90;;;;;;5082383;28;20529;-77
2022/06/24 03:12:19;;;;;;;;;;;17.60;99.90;;;;;;5077528;28;19939;-77
2022/06/24 03:14:44;;;;;;;;;;;17.60;99.90;;;;;;5083333;28;19904;-76
2022/06/24 03:17:10;;;;;;;;;;;17.60;99.90;;;;;;5088999;28;19970;-76
2022/06/24 03:19:35;;;;;;;;;;;17.60;99.90;;;;;;5080650;28;20428;-76
2022/06/24 03:22:00;;;;;;;;;;;17.70;99.90;;;;;;5075360;28;19908;-76
2022/06/24 03:24:26;;;;;;;;;;;17.70;99.90;;;;;;5081411;28;19912;-75
2022/06/24 03:26:51;;;;;;;;;;;17.70;99.90;;;;;;5075022;28;19908;-76
2022/06/24 03:29:17;;;;;;;;;;;17.70;99.90;;;;;;5082165;28;19908;-77
2022/06/24 03:31:42;;;;;;;;;;;17.80;99.90;;;;;;5089109;28;19915;-76
2022/06/24 03:34:07;;;;;;;;;;;17.80;99.90;;;;;;5099643;28;19940;-76
2022/06/24 03:36:33;;;;;;;;;;;17.90;99.90;;;;;;5083540;28;20005;-77
2022/06/24 03:38:58;;;;;;;;;;;17.90;99.90;;;;;;5068711;28;19904;-76
2022/06/24 03:41:24;;;;;;;;;;;18.00;99.90;;;;;;5082585;28;19916;-76
2022/06/24 03:43:49;;;;;;;;;;;18.00;99.90;;;;;;5082879;28;20551;-76
2022/06/24 03:46:14;;;;;;;;;;;18.10;99.90;;;;;;5079767;28;19967;-76
2022/06/24 03:48:40;;;;;;;;;;;18.10;99.90;;;;;;5078700;28;19922;-77
2022/06/24 03:51:05;;;;;;;;;;;18.10;99.90;;;;;;5082557;28;19916;-76
2022/06/24 03:53:31;;;;;;;;;;;18.10;99.90;;;;;;5084599;28;20278;-76
2022/06/24 03:55:57;;;;;;;;;;;18.20;99.90;;;;;;5084731;28;19916;-75
2022/06/24 03:58:22;;;;;;;;;;;18.20;99.90;;;;;;5086268;28;20347;-76
2022/06/24 04:00:48;;;;;;;;;;;18.30;99.90;;;;;;5089969;28;19918;-76
2022/06/24 04:03:13;;;;;;;;;;;18.30;99.90;;;;;;5091338;28;19908;-77
2022/06/24 04:05:39;;;;;;;;;;;18.40;99.90;;;;;;5074456;28;20437;-76
2022/06/24 04:08:04;;;;;;;;;;;18.50;99.90;;;;;;5083395;28;19908;-76
2022/06/24 04:10:30;;;;;;;;;;;18.60;99.90;;;;;;5081013;28;20388;-76
2022/06/24 04:12:55;;;;;;;;;;;18.70;99.90;;;;;;5080577;28;19953;-76
2022/06/24 04:15:21;;;;;;;;;;;18.80;99.40;;;;;;5076494;28;20068;-76
2022/06/24 04:17:47;;;;;;;;;;;18.90;99.10;;;;;;5081842;28;19966;-76
2022/06/24 04:20:17;;;;;;;;;;;18.90;97.20;;;;;;5088397;28;19908;-77
2022/06/24 04:22:43;;;;;;;;;;;19.00;98.20;;;;;;5092401;28;19915;-76
2022/06/24 04:25:09;;;;;;;;;;;19.10;97.80;;;;;;5090276;28;19907;-75
2022/06/24 04:27:34;;;;;;;;;;;19.20;96.40;;;;;;5091605;28;19930;-77
2022/06/24 04:30:04;;;;;;;;;;;19.30;94.90;;;;;;5080149;28;19922;-76
2022/06/24 04:32:29;;;;;;;;;;;19.40;95.10;;;;;;5091808;28;19929;-75
2022/06/24 04:34:55;;;;;;;;;;;19.40;94.10;;;;;;5088694;28;19911;-76
2022/06/24 04:37:20;;;;;;;;;;;19.60;92.20;;;;;;5088576;28;20362;-76
2022/06/24 04:39:46;;;;;;;;;;;19.80;92.30;;;;;;5093376;28;19907;-76
2022/06/24 04:42:11;;;;;;;;;;;19.80;91.80;;;;;;5091436;28;19915;-76
2022/06/24 04:44:36;;;;;;;;;;;19.80;91.60;;;;;;5084924;28;20461;-76
2022/06/24 04:47:02;;;;;;;;;;;19.90;91.20;;;;;;5083095;28;19904;-76
2022/06/24 04:49:27;;;;;;;;;;;19.90;91.10;;;;;;5092305;28;20006;-76
2022/06/24 04:51:53;;;;;;;;;;;20.00;90.90;;;;;;5090433;28;19914;-76
2022/06/24 04:54:18;;;;;;;;;;;20.00;91.10;;;;;;5083238;28;19916;-76
2022/06/24 04:56:44;;;;;;;;;;;20.00;91.80;;;;;;5089065;28;19919;-76
2022/06/24 04:59:09;;;;;;;;;;;20.00;90.60;;;;;;5091451;28;20112;-75
2022/06/24 05:01:35;;;;;;;;;;;20.10;91.10;;;;;;5087689;28;19912;-76
2022/06/24 05:04:00;;;;;;;;;;;20.10;90.70;;;;;;5088108;28;20359;-78
2022/06/24 05:06:25;;;;;;;;;;;20.20;90.40;;;;;;5080455;28;20390;-78
2022/06/24 05:08:51;;;;;;;;;;;20.20;89.80;;;;;;5087312;28;19912;-78
2022/06/24 05:11:16;;;;;;;;;;;20.30;90.40;;;;;;5092675;28;20420;-78
2022/06/24 05:13:42;;;;;;;;;;;20.30;90.10;;;;;;5094951;28;19961;-78
2022/06/24 05:16:07;;;;;;;;;;;20.30;89.80;;;;;;5079388;28;19912;-78
2022/06/24 05:18:33;;;;;;;;;;;20.40;90.00;;;;;;5089017;28;19914;-78
2022/06/24 05:20:58;;;;;;;;;;;20.40;88.90;;;;;;5081753;28;19996;-78
2022/06/24 05:23:24;;;;;;;;;;;20.50;88.00;;;;;;5088970;28;20287;-78
2022/06/24 05:25:49;;;;;;;;;;;20.50;87.40;;;;;;5077525;28;19915;-78
2022/06/24 05:28:14;;;;;;;;;;;20.60;87.50;;;;;;5089799;28;19915;-77
2022/06/24 05:30:40;;;;;;;;;;;20.70;86.70;;;;;;5093150;28;19916;-78
2022/06/24 05:33:05;;;;;;;;;;;20.70;87.80;;;;;;5087056;28;19908;-78
2022/06/24 05:35:31;;;;;;;;;;;20.70;87.60;;;;;;5084145;28;19913;-78
2022/06/24 05:37:56;;;;;;;;;;;20.80;86.30;;;;;;5088968;28;19919;-78
2022/06/24 05:40:21;;;;;;;;;;;20.90;85.80;;;;;;5089878;28;19908;-78
2022/06/24 05:42:47;;;;;;;;;;;20.90;86.30;;;;;;5087128;28;19908;-78
2022/06/24 05:45:12;;;;;;;;;;;21.00;86.50;;;;;;5085424;28;20382;-77
2022/06/24 05:47:38;;;;;;;;;;;21.00;86.10;;;;;;5075350;28;20409;-77
2022/06/24 05:50:03;;;;;;;;;;;21.20;83.50;;;;;;5090249;28;19923;-78
2022/06/24 05:55:13;;;;;;;;;;;21.20;84.10;;;;;;5081644;28;19923;-77
2022/06/24 05:57:38;;;;;;;;;;;21.30;82.60;;;;;;5083287;28;19912;-77
2022/06/24 06:00:04;;;;;;;;;;;21.40;83.10;;;;;;5083791;28;19904;-78
2022/06/24 06:02:30;;;;;;;;;;;21.40;82.50;;;;;;5087322;28;19981;-78
2022/06/24 06:04:55;;;;;;;;;;;21.50;81.30;;;;;;5088147;28;19908;-77
2022/06/24 06:07:21;;;;;;;;;;;21.60;81.40;;;;;;5087248;28;19915;-78
2022/06/24 06:09:46;;;;;;;;;;;21.70;80.60;;;;;;5088609;28;20322;-78
2022/06/24 06:12:11;;;;;;;;;;;21.70;82.50;;;;;;5102351;28;19911;-77
2022/06/24 06:14:37;;;;;;;;;;;21.90;81.50;;;;;;5079651;28;19947;-76
2022/06/24 06:17:02;;;;;;;;;;;22.00;78.70;;;;;;5089769;28;19920;-77
2022/06/24 06:19:28;;;;;;;;;;;22.10;78.80;;;;;;5078728;28;20396;-77
2022/06/24 06:21:53;;;;;;;;;;;22.10;77.60;;;;;;5081698;28;19909;-77
2022/06/24 06:24:19;;;;;;;;;;;22.20;77.90;;;;;;5079231;28;19969;-78
2022/06/24 06:26:44;;;;;;;;;;;22.20;78.80;;;;;;5088661;28;19954;-78
2022/06/24 06:29:09;;;;;;;;;;;22.30;77.20;;;;;;5089973;28;20295;-77
2022/06/24 06:31:35;;;;;;;;;;;22.30;76.70;;;;;;5079144;28;19908;-77
2022/06/24 06:34:00;;;;;;;;;;;22.50;76.50;;;;;;5081719;28;20366;-78
2022/06/24 06:36:28;;;;;;;;;;;22.50;77.20;;;;;;5088077;28;19915;-77
2022/06/24 06:38:54;;;;;;;;;;;22.60;77.30;;;;;;5090454;28;19959;-76
2022/06/24 06:41:19;;;;;;;;;;;22.70;74.00;;;;;;5089484;28;20144;-76
2022/06/24 06:43:45;;;;;;;;;;;22.90;72.00;;;;;;5086925;28;19994;-76
2022/06/24 06:46:10;;;;;;;;;;;23.00;72.70;;;;;;5089434;28;19991;-76
2022/06/24 06:48:36;;;;;;;;;;;23.10;71.40;;;;;;5084124;28;20394;-76
2022/06/24 06:51:02;;;;;;;;;;;23.20;70.70;;;;;;5087173;28;20382;-77
2022/06/24 06:53:27;;;;;;;;;;;23.20;69.90;;;;;;5088248;28;20367;-76
2022/06/24 06:55:53;;;;;;;;;;;23.30;72.90;;;;;;5085248;28;19938;-76
2022/06/24 06:58:19;;;;;;;;;;;23.50;67.60;;;;;;5088875;28;19997;-76
2022/06/24 07:00:45;;;;;;;;;;;23.50;69.10;;;;;;5083342;28;19908;-76
2022/06/24 07:03:10;;;;;;;;;;;23.50;67.40;;;;;;5072996;28;19919;-76
2022/06/24 07:05:36;;;;;;;;;;;23.60;68.60;;;;;;5079143;28;20302;-77
2022/06/24 07:08:01;;;;;;;;;;;23.60;66.80;;;;;;5093458;28;19991;-76
2022/06/24 07:10:27;;;;;;;;;;;23.70;67.00;;;;;;5082181;28;20367;-78
2022/06/24 07:12:52;;;;;;;;;;;23.70;66.40;;;;;;5079873;28;19943;-77
2022/06/24 07:15:18;;;;;;;;;;;23.80;66.50;;;;;;5087920;28;19908;-76
2022/06/24 07:17:43;;;;;;;;;;;23.80;66.30;;;;;;5092946;28;19939;-76
2022/06/24 07:20:09;;;;;;;;;;;24.00;65.80;;;;;;5091391;28;19912;-76
2022/06/24 07:22:34;;;;;;;;;;;24.00;65.50;;;;;;5090001;28;19969;-76
2022/06/24 07:25:00;;;;;;;;;;;24.10;65.80;;;;;;5075953;28;20273;-76
2022/06/24 07:27:25;;;;;;;;;;;24.10;65.70;;;;;;5081780;28;19949;-76
2022/06/24 07:29:51;;;;;;;;;;;24.20;65.40;;;;;;5088969;28;20334;-75
2022/06/24 07:32:16;;;;;;;;;;;24.30;68.10;;;;;;5087659;28;20266;-76
2022/06/24 07:34:42;;;;;;;;;;;24.50;66.50;;;;;;5083087;28;19970;-75
2022/06/24 07:37:07;;;;;;;;;;;24.70;63.40;;;;;;5090643;28;19959;-76
2022/06/24 07:39:33;;;;;;;;;;;24.80;62.60;;;;;;5090829;28;19953;-76
2022/06/24 07:41:58;;;;;;;;;;;25.00;62.30;;;;;;5076403;28;19916;-75
2022/06/24 07:44:24;;;;;;;;;;;25.10;62.10;;;;;;5077146;28;19912;-76
2022/06/24 07:46:49;;;;;;;;;;;25.10;62.20;;;;;;5080160;28;19908;-76
2022/06/24 07:49:15;;;;;;;;;;;25.10;59.00;;;;;;5077335;28;19912;-76
2022/06/24 07:51:41;;;;;;;;;;;25.20;58.60;;;;;;5073236;28;19912;-76
2022/06/24 07:54:07;;;;;;;;;;;25.10;58.60;;;;;;5081771;28;19920;-75
2022/06/24 07:59:21;;;;;;;;;;;25.10;57.30;;;;;;5087732;28;20285;-76
2022/06/24 08:01:46;;;;;;;;;;;25.20;58.30;;;;;;5092398;28;19908;-75
2022/06/24 08:04:12;;;;;;;;;;;25.40;57.50;;;;;;5091511;28;19908;-76
2022/06/24 08:06:38;;;;;;;;;;;25.50;55.00;;;;;;5081586;28;19955;-76
2022/06/24 08:09:03;;;;;;;;;;;25.60;59.40;;;;;;5088399;28;19923;-75
2022/06/24 08:11:29;;;;;;;;;;;25.90;58.00;;;;;;5090536;28;19908;-75
2022/06/24 08:13:55;;;;;;;;;;;26.10;55.40;;;;;;5075276;28;20367;-75
2022/06/24 08:16:21;;;;;;;;;;;26.30;56.10;;;;;;5085485;28;19954;-76
2022/06/24 08:18:46;;;;;;;;;;;26.40;54.90;;;;;;5093447;28;19915;-76
2022/06/24 08:21:12;;;;;;;;;;;26.30;53.50;;;;;;5084872;28;19912;-75
2022/06/24 08:23:37;;;;;;;;;;;26.30;54.30;;;;;;5081407;28;19981;-75
2022/06/24 08:26:04;;;;;;;;;;;26.40;53.20;;;;;;5075840;28;20547;-75
2022/06/24 08:28:29;;;;;;;;;;;26.40;54.30;;;;;;5081691;28;19991;-77
2022/06/24 08:30:54;;;;;;;;;;;26.30;54.90;;;;;;5074346;28;19996;-78
2022/06/24 08:33:21;;;;;;;;;;;26.60;57.60;;;;;;5085559;28;20560;-77
2022/06/24 08:35:46;;;;;;;;;;;26.80;56.30;;;;;;5081232;28;19938;-76
2022/06/24 08:38:12;;;;;;;;;;;27.00;53.20;;;;;;5076795;28;19912;-75
2022/06/24 08:40:37;;;;;;;;;;;26.80;54.20;;;;;;5084482;28;19908;-76
2022/06/24 08:43:02;;;;;;;;;;;26.60;52.80;;;;;;5083768;28;20684;-77
2022/06/24 08:45:31;;;;;;;;;;;26.60;53.90;;;;;;5080344;28;19963;-80
2022/06/24 08:47:56;;;;;;;;;;;26.90;57.20;;;;;;5074637;28;19912;-85
2022/06/24 08:50:23;;;;;;;;;;;27.20;55.40;;;;;;5078935;28;19922;-78
2022/06/24 08:52:49;;;;;;;;;;;27.30;54.70;;;;;;5079396;28;19908;-79
2022/06/24 08:55:15;;;;;;;;;;;27.30;53.80;;;;;;5083010;28;19963;-80
2022/06/24 08:57:41;;;;;;;;;;;27.40;55.00;;;;;;5081221;28;19916;-83
2022/06/24 09:00:06;;;;;;;;;;;27.40;52.60;;;;;;5089357;28;20377;-82
2022/06/24 09:02:32;;;;;;;;;;;27.40;53.90;;;;;;5087735;28;19908;-78
2022/06/24 09:05:07;;;;;;;;;;;27.50;54.30;;;;;;5071904;28;19982;-77
2022/06/24 09:07:32;;;;;;;;;;;27.70;53.00;;;;;;5078804;28;19912;-78
2022/06/24 09:10:03;;;;;;;;;;;27.70;52.60;;;;;;5094541;28;19923;-79
2022/06/24 09:12:29;;;;;;;;;;;27.70;51.80;;;;;;5080047;28;20025;-77
2022/06/24 09:14:55;;;;;;;;;;;27.60;53.20;;;;;;5085970;28;19912;-78
2022/06/24 09:17:28;;;;;;;;;;;27.70;53.30;;;;;;5077313;28;19927;-78
2022/06/24 09:20:02;;;;;;;;;;;27.70;52.50;;;;;;5081036;28;20320;-79
2022/06/24 09:22:27;;;;;;;;;;;27.60;51.70;;;;;;5083911;28;19932;-77
2022/06/24 09:24:53;;;;;;;;;;;27.70;52.10;;;;;;5078355;28;19917;-78
2022/06/24 09:27:20;;;;;;;;;;;27.80;51.70;;;;;;5092191;28;19908;-76
2022/06/24 09:29:47;;;;;;;;;;;27.70;51.60;;;;;;5077749;28;19919;-78
2022/06/24 09:32:12;;;;;;;;;;;27.80;51.80;;;;;;5090806;28;19995;-76
2022/06/24 09:34:38;;;;;;;;;;;27.80;50.30;;;;;;5083813;28;20050;-78
2022/06/24 09:37:03;;;;;;;;;;;27.80;49.40;;;;;;5083723;28;19972;-79
2022/06/24 09:39:31;;;;;;;;;;;27.70;50.20;;;;;;5081402;28;19916;-77
2022/06/24 09:41:57;;;;;;;;;;;27.90;51.30;;;;;;5090673;28;20446;-78
2022/06/24 09:44:24;;;;;;;;;;;28.10;49.20;;;;;;5090484;28;19912;-78
2022/06/24 09:47:05;;;;;;;;;;;28.30;50.30;;;;;;5089654;28;20434;-78
2022/06/24 09:49:31;;;;;;;;;;;27.90;48.30;;;;;;5081265;28;19938;-77
2022/06/24 09:51:56;;;;;;;;;;;27.90;48.40;;;;;;5089261;28;20366;-77
2022/06/24 09:54:22;;;;;;;;;;;28.20;50.20;;;;;;5090049;28;19916;-78
2022/06/24 09:56:49;;;;;;;;;;;28.30;51.00;;;;;;5089628;28;19970;-79
2022/06/24 10:01:59;;;;;;;;;;;28.20;46.70;;;;;;5091273;28;19922;-78
2022/06/24 10:04:25;;;;;;;;;;;28.30;48.50;;;;;;5087319;28;19909;-78
2022/06/24 10:06:50;;;;;;;;;;;28.40;48.10;;;;;;5080987;28;20022;-77
2022/06/24 10:09:24;;;;;;;;;;;28.70;49.90;;;;;;5086965;28;19920;-77
2022/06/24 10:11:50;;;;;;;;;;;28.90;48.00;;;;;;5088733;28;19912;-76
2022/06/24 10:14:16;;;;;;;;;;;28.90;51.00;;;;;;5094092;28;20317;-78
2022/06/24 10:16:42;;;;;;;;;;;28.90;45.80;;;;;;5081426;28;19916;-77
2022/06/24 10:19:09;;;;;;;;;;;29.00;43.40;;;;;;5083518;28;19911;-78
2022/06/24 10:21:35;;;;;;;;;;;29.00;42.50;;;;;;5077851;28;19914;-78
2022/06/24 10:24:09;;;;;;;;;;;29.20;44.70;;;;;;5091869;28;19932;-76
2022/06/24 10:26:35;;;;;;;;;;;29.10;42.70;;;;;;5110098;28;19968;-77
2022/06/24 10:29:03;;;;;;;;;;;29.10;43.90;;;;;;5091342;28;19919;-78
2022/06/24 10:31:52;;;;;;;;;;;29.10;43.50;;;;;;5082708;28;19908;-78
2022/06/24 10:34:27;;;;;;;;;;;29.40;44.50;;;;;;5089047;28;19994;-77
2022/06/24 10:36:53;;;;;;;;;;;29.30;43.00;;;;;;5089548;28;19927;-77
2022/06/24 10:39:20;;;;;;;;;;;29.40;45.50;;;;;;5089044;28;19908;-78
2022/06/24 10:41:45;;;;;;;;;;;29.60;46.90;;;;;;5082633;28;20362;-77
2022/06/24 10:44:24;;;;;;;;;;;29.70;44.20;;;;;;5083999;28;19967;-76
2022/06/24 10:47:04;;;;;;;;;;;29.80;43.10;;;;;;5077123;28;19915;-77
2022/06/24 10:49:54;;;;;;;;;;;29.80;44.30;;;;;;5074835;28;20061;-78
2022/06/24 10:52:39;;;;;;;;;;;29.60;44.30;;;;;;5085808;28;19908;-76
2022/06/24 10:55:16;;;;;;;;;;;29.90;44.60;;;;;;5081332;28;19927;-78
2022/06/24 10:57:42;;;;;;;;;;;30.00;43.40;;;;;;5087942;28;19919;-78
2022/06/24 11:00:09;;;;;;;;;;;30.20;49.50;;;;;;5081608;28;20405;-77
2022/06/24 11:02:35;;;;;;;;;;;30.50;42.80;;;;;;5088139;28;19961;-78
2022/06/24 11:05:00;;;;;;;;;;;30.30;43.10;;;;;;5078819;28;20268;-79
2022/06/24 11:07:26;;;;;;;;;;;30.50;45.70;;;;;;5086425;28;20362;-78
2022/06/24 11:09:51;;;;;;;;;;;30.50;46.30;;;;;;5085711;28;19962;-79
2022/06/24 11:12:27;;;;;;;;;;;30.50;43.70;;;;;;5081696;28;20370;-79
2022/06/24 11:14:53;;;;;;;;;;;30.50;44.70;;;;;;5076056;28;19909;-77
2022/06/24 11:17:25;;;;;;;;;;;30.50;42.50;;;;;;5082383;28;20006;-79
2022/06/24 11:19:51;;;;;;;;;;;30.70;43.60;;;;;;5079878;28;19904;-78
2022/06/24 11:22:17;;;;;;;;;;;30.60;44.70;;;;;;5084195;28;19915;-79
2022/06/24 11:24:44;;;;;;;;;;;31.00;43.10;;;;;;5083442;28;19905;-78
2022/06/24 11:27:09;;;;;;;;;;;31.30;43.20;;;;;;5089499;28;19908;-78
2022/06/24 11:29:54;;;;;;;;;;;31.20;42.30;;;;;;5093010;28;19908;-79
2022/06/24 11:32:20;;;;;;;;;;;31.50;43.80;;;;;;5083496;28;19954;-77
2022/06/24 11:34:45;;;;;;;;;;;31.80;43.40;;;;;;5090637;28;19955;-79
2022/06/24 11:37:11;;;;;;;;;;;31.90;44.40;;;;;;5089935;28;20416;-77
2022/06/24 11:39:37;;;;;;;;;;;32.00;42.20;;;;;;5092611;28;19904;-78
2022/06/24 11:42:02;;;;;;;;;;;32.30;42.90;;;;;;5093259;28;20495;-77
2022/06/24 11:44:31;;;;;;;;;;;32.40;40.60;;;;;;5091816;28;19912;-79
2022/06/24 11:46:57;;;;;;;;;;;32.10;40.90;;;;;;5082189;28;20121;-79
2022/06/24 11:49:22;;;;;;;;;;;32.20;42.30;;;;;;5090268;28;19912;-78
2022/06/24 11:51:48;;;;;;;;;;;32.00;41.70;;;;;;5088755;28;19904;-77
2022/06/24 11:54:13;;;;;;;;;;;31.90;43.30;;;;;;5088326;28;19920;-79
2022/06/24 11:56:40;;;;;;;;;;;31.60;43.20;;;;;;5090839;28;19916;-79
2022/06/24 11:59:06;;;;;;;;;;;31.60;41.20;;;;;;5091360;28;19973;-79
2022/06/24 12:01:32;;;;;;;;;;;31.70;43.40;;;;;;5093614;28;20370;-79
2022/06/24 12:03:59;;;;;;;;;;;32.00;43.30;;;;;;5089109;28;19923;-80
2022/06/24 12:06:25;;;;;;;;;;;32.20;41.20;;;;;;5092098;28;19908;-79
2022/06/24 12:08:51;;;;;;;;;;;32.00;41.80;;;;;;5082231;28;19908;-79
2022/06/24 12:11:20;;;;;;;;;;;32.40;42.00;;;;;;5089983;28;19915;-77
2022/06/24 12:13:56;;;;;;;;;;;32.60;40.30;;;;;;5091502;28;20385;-78
2022/06/24 12:16:22;;;;;;;;;;;32.70;41.10;;;;;;5092464;28;19908;-78
2022/06/24 12:18:48;;;;;;;;;;;32.40;40.10;;;;;;5084119;28;19923;-77
2022/06/24 12:21:13;;;;;;;;;;;32.20;40.20;;;;;;5090047;28;19912;-80
2022/06/24 12:23:44;;;;;;;;;;;32.40;41.00;;;;;;5091807;28;19970;-79
2022/06/24 12:26:14;;;;;;;;;;;32.50;39.00;;;;;;5085357;28;19914;-79
2022/06/24 12:28:40;;;;;;;;;;;32.50;40.10;;;;;;5088995;28;19965;-79
2022/06/24 12:31:06;;;;;;;;;;;32.70;39.60;;;;;;5112065;28;19907;-79
2022/06/24 12:33:33;;;;;;;;;;;33.00;37.90;;;;;;5112323;28;20358;-78
2022/06/24 12:36:04;;;;;;;;;;;33.40;37.50;;;;;;5112325;28;19908;-79
2022/06/24 12:38:30;;;;;;;;;;;33.40;39.60;;;;;;5110226;28;19908;-80
2022/06/24 12:41:12;;;;;;;;;;;33.60;39.50;;;;;;5088344;28;20005;-78
2022/06/24 12:43:50;;;;;;;;;;;33.90;40.00;;;;;;5082241;28;19908;-78
2022/06/24 12:46:16;;;;;;;;;;;33.80;39.50;;;;;;5091632;28;19911;-78
2022/06/24 12:51:26;;;;;;;;;;;34.40;37.80;;;;;;5084512;28;19954;-79
2022/06/24 12:53:53;;;;;;;;;;;34.80;37.10;;;;;;5080002;28;20379;-79
2022/06/24 12:56:19;;;;;;;;;;;35.70;35.80;;;;;;5067706;28;19959;-77
2022/06/24 12:58:45;;;;;;;;;;;35.70;34.60;;;;;;5066897;28;19916;-78
2022/06/24 13:01:11;;;;;;;;;;;35.10;37.80;;;;;;5070466;28;19909;-78
2022/06/24 13:03:37;;;;;;;;;;;35.40;34.70;;;;;;5065006;28;19919;-78
2022/06/24 13:06:02;;;;;;;;;;;36.00;35.70;;;;;;5066734;28;19970;-79
2022/06/24 13:08:28;;;;;;;;;;;37.10;37.20;;;;;;5070438;28;19908;-78
2022/06/24 13:10:53;;;;;;;;;;;37.80;31.50;;;;;;5064765;28;20028;-78
2022/06/24 13:13:18;;;;;;;;;;;38.90;31.10;;;;;;5065620;28;20462;-79
2022/06/24 13:15:44;;;;;;;;;;;38.40;31.50;;;;;;5064856;28;19962;-78
2022/06/24 13:18:09;;;;;;;;;;;37.40;33.40;;;;;;5069798;28;19931;-79
2022/06/24 13:20:35;;;;;;;;;;;39.60;31.90;;;;;;5072443;28;20390;-79
2022/06/24 13:23:00;;;;;;;;;;;40.90;29.30;;;;;;5066492;28;19979;-79
2022/06/24 13:25:26;;;;;;;;;;;40.20;28.70;;;;;;5057582;28;19914;-79
2022/06/24 13:27:51;;;;;;;;;;;38.70;29.80;;;;;;5070571;28;19954;-79
2022/06/24 13:30:18;;;;;;;;;;;39.90;28.20;;;;;;5073392;28;19912;-78
2022/06/24 13:32:43;;;;;;;;;;;40.60;27.80;;;;;;5068174;28;19911;-79
2022/06/24 13:35:09;;;;;;;;;;;40.50;27.20;;;;;;5058883;28;19962;-79
2022/06/24 13:37:34;;;;;;;;;;;40.70;28.30;;;;;;5071024;28;19913;-80
2022/06/24 13:40:00;;;;;;;;;;;39.00;28.90;;;;;;5071589;28;19911;-78
2022/06/24 13:42:26;;;;;;;;;;;38.50;28.20;;;;;;5086076;28;20003;-80
2022/06/24 13:44:52;;;;;;;;;;;38.60;27.90;;;;;;5065221;28;19919;-79
2022/06/24 13:47:17;;;;;;;;;;;38.60;28.10;;;;;;5053164;28;20390;-79
2022/06/24 13:49:43;;;;;;;;;;;37.00;29.20;;;;;;5074689;28;19912;-80
2022/06/24 13:52:08;;;;;;;;;;;35.40;31.30;;;;;;5067216;28;19915;-78
2022/06/24 13:54:33;;;;;;;;;;;34.80;31.50;;;;;;5069325;28;19962;-79
2022/06/24 13:56:59;;;;;;;;;;;34.00;32.20;;;;;;5083565;28;19908;-78
2022/06/24 13:59:24;;;;;;;;;;;33.60;33.30;;;;;;5089969;28;19911;-77
2022/06/24 14:01:50;;;;;;;;;;;33.60;33.60;;;;;;5090309;28;19904;-79
2022/06/24 14:04:15;;;;;;;;;;;34.40;34.10;;;;;;5079055;28;20266;-78
2022/06/24 14:06:40;;;;;;;;;;;36.40;30.80;;;;;;5077176;28;20303;-78
2022/06/24 14:09:06;;;;;;;;;;;38.10;29.40;;;;;;5081986;28;19916;-80
2022/06/24 14:11:31;;;;;;;;;;;36.40;30.00;;;;;;5097572;28;19908;-80
2022/06/24 14:13:57;;;;;;;;;;;38.40;29.30;;;;;;5075815;28;19963;-81
2022/06/24 14:16:22;;;;;;;;;;;39.00;28.90;;;;;;5087285;28;19943;-80
2022/06/24 14:18:48;;;;;;;;;;;36.90;30.90;;;;;;5080846;28;19958;-81
2022/06/24 14:21:13;;;;;;;;;;;35.80;31.50;;;;;;5103055;28;19908;-81
2022/06/24 14:26:22;;;;;;;;;;;34.00;37.70;;;;;;5094130;28;19946;-79
2022/06/24 14:28:48;;;;;;;;;;;35.00;41.50;;;;;;5086131;28;19944;-81